Sar'Ja, Russia
Current Conditions -  °F | °C
As of 6:30 AM on Wednesday 22 Oct 2014 (Local Time) from UWGG Reporting Station
Light Snow Light Snow  
Wind Chill:   Ceiling: 900
Heat Index: 19°   Visibility: 2mi
Dew Point: 18°   Wind: 9mph
Humidity: 93%   Direction: 320°NW
Pressure: 29.53"   Gusts: NA
Location:  58.37°N, 45.53°E
Report Text: UWGG 220330Z 32004MPS 3300 -SN OVC009 M07/M08 Q1000 TEMPO31007G14MPS 0500 +SN BLSN OVC005
Loading
Personal Weather Stations






























Interactive Weather Map
Tropical Storm Tracking
New forecast layout! Learn more

10-Day Weather Forecast

Advertisements
Track Severe Weather on mobile